Time;durP1;ratioP1;P1;durP2;ratioP2;P2;SDS_P1;SDS_P2;PMS_P1;PMS_P2;Temp;Humidity;BMP_temperature;BMP_pressure;BME280_temperature;BME280_humidity;BME280_pressure;Samples;Min_cycle;Max_cycle;Signal;HPM_P1;HPM_P2
2023/07/31 00:00:55;;;;;;;2.38;1.30;;;16.00;99.90;;;;;;4838078;29;20050;-55
2023/07/31 00:03:23;;;;;;;2.53;1.10;;;16.00;99.90;;;;;;4834373;29;20062;-55
2023/07/31 00:05:51;;;;;;;4.50;1.23;;;15.90;99.90;;;;;;4832421;29;20054;-55
2023/07/31 00:08:19;;;;;;;3.20;1.00;;;16.00;99.90;;;;;;4857297;29;20050;-56
2023/07/31 00:10:47;;;;;;;5.20;1.20;;;16.00;99.90;;;;;;4852321;29;20042;-56
2023/07/31 00:13:14;;;;;;;1.55;0.95;;;16.00;99.90;;;;;;4853863;29;20041;-56
2023/07/31 00:15:42;;;;;;;1.70;0.98;;;16.00;99.90;;;;;;4845079;29;20057;-55
2023/07/31 00:18:10;;;;;;;1.65;1.00;;;16.00;99.90;;;;;;4856197;29;20092;-55
2023/07/31 00:20:37;;;;;;;4.15;1.05;;;16.00;99.90;;;;;;4855247;29;20053;-55
2023/07/31 00:23:05;;;;;;;1.42;0.90;;;16.00;99.90;;;;;;4851557;29;20045;-55
2023/07/31 00:25:33;;;;;;;2.30;1.10;;;16.00;99.90;;;;;;4853454;29;20053;-55
2023/07/31 00:28:00;;;;;;;2.75;1.17;;;16.00;99.90;;;;;;4851508;29;20061;-56
2023/07/31 00:30:28;;;;;;;5.13;1.33;;;16.00;99.90;;;;;;4853279;29;20042;-55
2023/07/31 00:32:56;;;;;;;2.60;1.40;;;16.00;99.90;;;;;;4835895;29;20053;-57
2023/07/31 00:35:23;;;;;;;4.90;1.30;;;16.00;99.90;;;;;;4839312;29;20064;-56
2023/07/31 00:37:52;;;;;;;1.83;1.25;;;16.00;99.90;;;;;;4853117;29;20050;-55
2023/07/31 00:40:20;;;;;;;2.30;1.20;;;15.90;99.90;;;;;;4849003;29;20427;-55
2023/07/31 00:42:47;;;;;;;3.63;1.40;;;16.00;99.90;;;;;;4832926;29;20487;-55
2023/07/31 00:45:15;;;;;;;2.13;1.45;;;16.00;99.90;;;;;;4839961;29;20068;-55
2023/07/31 00:47:43;;;;;;;2.90;1.65;;;15.90;99.90;;;;;;4854426;29;20049;-55
2023/07/31 00:50:11;;;;;;;3.40;1.23;;;16.00;99.90;;;;;;4837614;29;20057;-55
2023/07/31 00:52:39;;;;;;;6.40;1.48;;;15.90;99.90;;;;;;4836034;29;20650;-55
2023/07/31 00:55:07;;;;;;;2.28;1.65;;;16.00;99.90;;;;;;4829750;29;20049;-55
2023/07/31 00:57:36;;;;;;;4.50;1.52;;;16.00;99.90;;;;;;4833803;29;20679;-55
2023/07/31 01:00:05;;;;;;;2.80;1.30;;;16.00;99.90;;;;;;4819321;29;20056;-55
2023/07/31 01:02:32;;;;;;;2.95;1.35;;;16.00;99.90;;;;;;4833026;29;20053;-56
2023/07/31 01:05:01;;;;;;;3.88;1.50;;;;;;;;;;4830582;29;20063;-56
2023/07/31 01:07:39;;;;;;;2.20;1.10;;;16.00;99.90;;;;;;4850418;29;20053;-55
2023/07/31 01:10:16;;;;;;;3.35;1.30;;;16.00;99.90;;;;;;4843661;29;20081;-55
2023/07/31 01:12:46;;;;;;;3.05;1.23;;;16.00;99.90;;;;;;4850073;29;20630;-55
2023/07/31 01:15:15;;;;;;;3.13;1.27;;;16.00;99.90;;;;;;4839359;29;20054;-55
2023/07/31 01:17:43;;;;;;;1.83;1.27;;;16.10;99.90;;;;;;4846115;29;20046;-55
2023/07/31 01:20:14;;;;;;;2.10;1.00;;;16.10;99.90;;;;;;4853212;29;20057;-55
2023/07/31 01:22:54;;;;;;;2.85;1.02;;;16.10;99.90;;;;;;4830151;29;20049;-55
2023/07/31 01:25:28;;;;;;;2.67;1.45;;;16.10;99.90;;;;;;4854177;29;20056;-56
2023/07/31 01:28:20;;;;;;;3.67;1.30;;;16.10;99.90;;;;;;4852778;29;20065;-57
2023/07/31 01:30:48;;;;;;;1.55;1.10;;;16.10;99.90;;;;;;4805087;29;21171;-56
2023/07/31 01:33:17;;;;;;;1.88;1.05;;;16.20;99.90;;;;;;4836542;29;20072;-56
2023/07/31 01:35:48;;;;;;;2.20;1.13;;;16.20;99.90;;;;;;4834462;29;20048;-56
2023/07/31 01:38:15;;;;;;;4.10;1.10;;;16.20;99.90;;;;;;4832305;29;20096;-56
2023/07/31 01:40:43;;;;;;;2.58;0.95;;;16.20;99.90;;;;;;4836497;29;20042;-55
2023/07/31 01:43:11;;;;;;;2.40;1.23;;;16.20;99.90;;;;;;4836882;29;20045;-55
2023/07/31 01:45:38;;;;;;;0.90;0.90;;;16.20;99.90;;;;;;4832410;29;20045;-56
2023/07/31 01:48:06;;;;;;;1.58;1.10;;;16.30;99.90;;;;;;4836726;29;20061;-56
2023/07/31 01:50:34;;;;;;;2.25;1.00;;;16.30;99.90;;;;;;4836750;29;20053;-56
2023/07/31 01:53:02;;;;;;;2.38;1.02;;;16.30;99.90;;;;;;4858151;29;20041;-56
2023/07/31 01:55:29;;;;;;;3.13;0.80;;;16.30;99.90;;;;;;4856652;29;20042;-56
2023/07/31 01:57:57;;;;;;;2.55;0.90;;;16.30;99.90;;;;;;4838573;29;20046;-56
2023/07/31 02:00:24;;;;;;;1.58;0.77;;;16.30;99.90;;;;;;4858750;29;20493;-57
2023/07/31 02:02:52;;;;;;;2.05;0.88;;;16.40;99.90;;;;;;4857258;29;20049;-55
2023/07/31 02:05:20;;;;;;;2.40;0.70;;;16.40;99.90;;;;;;4841060;29;20052;-55
2023/07/31 02:07:47;;;;;;;2.72;1.25;;;16.40;99.90;;;;;;4857404;29;20049;-55
2023/07/31 02:10:15;;;;;;;1.05;0.60;;;16.40;99.90;;;;;;4835000;29;20046;-56
2023/07/31 02:12:43;;;;;;;2.97;0.77;;;16.40;99.90;;;;;;4835783;29;20048;-57
2023/07/31 02:15:10;;;;;;;1.85;0.60;;;16.40;99.90;;;;;;4852541;29;20406;-57
2023/07/31 02:17:38;;;;;;;0.85;0.50;;;16.40;99.90;;;;;;4838294;29;20049;-57
2023/07/31 02:20:07;;;;;;;0.50;0.50;;;16.50;99.90;;;;;;4846999;29;20054;-55
2023/07/31 02:22:35;;;;;;;4.38;0.50;;;16.40;99.90;;;;;;4838843;29;20053;-55
2023/07/31 02:25:03;;;;;;;2.85;0.50;;;16.50;99.90;;;;;;4838206;29;20045;-55
2023/07/31 02:27:30;;;;;;;0.40;0.40;;;16.50;99.90;;;;;;4833564;29;20049;-55
2023/07/31 02:29:59;;;;;;;0.55;0.20;;;16.50;99.90;;;;;;4833613;29;20056;-55
2023/07/31 02:32:27;;;;;;;0.25;0.25;;;16.60;99.90;;;;;;4825285;29;20053;-55
2023/07/31 02:34:54;;;;;;;1.60;0.25;;;16.60;99.90;;;;;;4841900;29;20054;-55
2023/07/31 02:37:25;;;;;;;1.67;0.25;;;16.60;99.90;;;;;;4856909;29;20045;-55
2023/07/31 02:39:53;;;;;;;2.20;0.20;;;16.60;99.90;;;;;;4843083;29;20055;-55
2023/07/31 02:42:21;;;;;;;0.30;0.10;;;16.60;99.90;;;;;;4844855;29;20045;-55
2023/07/31 02:44:51;;;;;;;2.42;0.32;;;16.60;99.90;;;;;;4854467;29;20053;-55
2023/07/31 02:47:21;;;;;;;0.65;0.13;;;16.70;99.90;;;;;;4836284;29;20046;-55
2023/07/31 02:49:51;;;;;;;;;;;16.70;99.90;;;;;;4860097;29;20056;-57
2023/07/31 02:52:19;;;;;;;0.30;0.30;;;16.70;99.90;;;;;;4842208;29;19924;-57
2023/07/31 02:54:47;;;;;;;0.10;0.10;;;16.70;99.90;;;;;;4856993;29;20065;-56
2023/07/31 02:57:16;;;;;;;0.20;0.20;;;16.70;99.90;;;;;;4842171;29;20481;-57
2023/07/31 02:59:43;;;;;;;1.95;0.35;;;16.70;99.90;;;;;;4834462;29;20041;-57
2023/07/31 03:02:12;;;;;;;0.52;0.30;;;16.70;99.90;;;;;;4854190;29;20064;-58
2023/07/31 03:04:40;;;;;;;1.55;0.25;;;16.70;99.90;;;;;;4857645;29;20054;-59
2023/07/31 03:07:08;;;;;;;0.60;0.40;;;16.70;99.90;;;;;;4857947;29;20050;-58
2023/07/31 03:09:36;;;;;;;1.13;0.30;;;16.70;99.90;;;;;;4843767;29;20041;-58
2023/07/31 03:12:04;;;;;;;1.58;0.38;;;16.70;99.90;;;;;;4838431;29;20050;-57
2023/07/31 03:14:31;;;;;;;1.88;0.50;;;16.70;99.90;;;;;;4843303;29;20061;-57
2023/07/31 03:16:59;;;;;;;1.50;0.60;;;16.70;99.90;;;;;;4858309;29;20412;-57
2023/07/31 03:19:29;;;;;;;0.65;0.45;;;16.70;99.90;;;;;;4838953;29;20044;-57
2023/07/31 03:21:58;;;;;;;2.47;0.70;;;16.70;99.90;;;;;;4858342;29;20046;-56
2023/07/31 03:24:26;;;;;;;4.63;0.80;;;16.70;99.90;;;;;;4859262;29;20060;-56
2023/07/31 03:26:54;;;;;;;1.02;0.70;;;16.70;99.90;;;;;;4840574;29;20057;-57
2023/07/31 03:29:22;;;;;;;0.88;0.50;;;16.70;99.90;;;;;;4836550;29;20506;-55
2023/07/31 03:31:52;;;;;;;3.33;0.88;;;16.70;99.90;;;;;;4859961;29;20057;-55
2023/07/31 03:34:20;;;;;;;5.63;1.10;;;16.70;99.90;;;;;;4861438;29;20061;-55
2023/07/31 03:36:48;;;;;;;3.70;1.58;;;16.70;99.90;;;;;;4857685;29;20470;-55
2023/07/31 03:39:16;;;;;;;4.03;1.17;;;16.70;99.90;;;;;;4849686;29;20045;-55
2023/07/31 03:41:43;;;;;;;2.78;1.00;;;16.70;99.90;;;;;;4857052;29;20073;-55
2023/07/31 03:44:11;;;;;;;8.00;1.40;;;16.70;99.90;;;;;;4839506;29;20034;-56
2023/07/31 03:46:38;;;;;;;3.58;1.05;;;16.60;99.90;;;;;;4839103;29;20065;-57
2023/07/31 03:49:07;;;;;;;3.47;1.40;;;16.60;99.90;;;;;;4856027;29;20493;-56
2023/07/31 03:51:34;;;;;;;5.20;1.60;;;16.60;99.90;;;;;;4850051;29;20497;-56
2023/07/31 03:54:02;;;;;;;7.50;1.85;;;16.60;99.90;;;;;;4858534;29;20049;-55
2023/07/31 03:56:30;;;;;;;6.60;1.75;;;16.60;99.90;;;;;;4839255;29;20061;-55
2023/07/31 03:59:00;;;;;;;6.10;1.67;;;16.60;99.90;;;;;;4851630;29;20413;-55
2023/07/31 04:01:28;;;;;;;6.53;2.33;;;16.60;99.90;;;;;;4856691;29;20050;-55
2023/07/31 04:03:56;;;;;;;10.77;2.00;;;16.60;99.90;;;;;;4854202;29;20049;-56
2023/07/31 04:06:23;;;;;;;8.95;2.25;;;16.50;99.90;;;;;;4857541;29;20050;-55
2023/07/31 04:08:51;;;;;;;9.02;2.47;;;16.50;99.90;;;;;;4850872;29;20414;-55
2023/07/31 04:11:19;;;;;;;8.75;2.00;;;16.50;99.90;;;;;;4838326;29;20042;-55
2023/07/31 04:13:46;;;;;;;9.32;2.75;;;16.50;99.90;;;;;;4860887;29;20049;-55
2023/07/31 04:16:14;;;;;;;11.80;2.20;;;16.50;99.90;;;;;;4834967;29;20057;-55
2023/07/31 04:18:42;;;;;;;6.88;2.45;;;16.40;99.90;;;;;;4840287;29;20049;-55
2023/07/31 04:21:10;;;;;;;12.52;2.83;;;;;;;;;;4860685;29;20045;-55
2023/07/31 04:23:38;;;;;;;5.95;2.25;;;16.30;99.90;;;;;;4857562;29;20053;-55
2023/07/31 04:26:05;;;;;;;7.25;3.15;;;16.30;99.90;;;;;;4836030;29;20057;-56
2023/07/31 04:28:33;;;;;;;9.82;2.78;;;16.30;99.90;;;;;;4837996;29;20046;-55
2023/07/31 04:31:01;;;;;;;7.75;2.65;;;16.30;99.90;;;;;;4857411;29;20045;-55
2023/07/31 04:33:28;;;;;;;6.00;3.25;;;16.20;99.90;;;;;;4835665;29;20070;-57
2023/07/31 04:35:57;;;;;;;10.95;3.80;;;16.20;99.90;;;;;;4856051;29;20053;-56
2023/07/31 04:38:24;;;;;;;10.00;3.40;;;16.20;99.90;;;;;;4855729;29;20426;-57
2023/07/31 04:40:52;;;;;;;10.88;3.35;;;16.20;99.90;;;;;;4856876;29;20058;-55
2023/07/31 04:43:23;;;;;;;11.93;3.85;;;16.20;99.90;;;;;;4859939;29;20052;-56
2023/07/31 04:45:51;;;;;;;13.02;3.17;;;16.30;99.90;;;;;;4860094;29;20045;-56
2023/07/31 04:48:21;;;;;;;12.05;3.97;;;16.30;99.90;;;;;;4830517;29;20048;-56
2023/07/31 04:50:51;;;;;;;10.05;3.65;;;16.30;99.90;;;;;;4855435;29;20060;-56
2023/07/31 04:53:19;;;;;;;12.60;3.72;;;16.30;99.90;;;;;;4836013;29;20049;-55
2023/07/31 04:55:46;;;;;;;20.92;4.68;;;16.40;99.90;;;;;;4850144;29;20494;-56
2023/07/31 04:58:14;;;;;;;11.38;3.85;;;16.40;99.90;;;;;;4854252;29;20291;-55
2023/07/31 05:00:42;;;;;;;18.95;4.72;;;16.40;99.90;;;;;;4834670;29;20056;-56
2023/07/31 05:03:11;;;;;;;12.48;4.57;;;16.40;99.90;;;;;;4841443;29;20049;-56
2023/07/31 05:05:39;;;;;;;20.88;4.57;;;16.40;99.90;;;;;;4845733;29;20064;-56
2023/07/31 05:08:07;;;;;;;12.20;4.22;;;16.40;99.90;;;;;;4834551;29;20056;-56
2023/07/31 05:10:35;;;;;;;13.27;3.90;;;16.50;99.90;;;;;;4849197;29;20046;-56
2023/07/31 05:13:03;;;;;;;12.73;3.92;;;16.40;99.90;;;;;;4852921;29;20409;-56
2023/07/31 05:15:31;;;;;;;12.57;4.45;;;16.50;99.90;;;;;;4851116;29;20050;-56
2023/07/31 05:17:59;;;;;;;14.15;4.53;;;16.40;99.90;;;;;;4832609;29;20060;-56
2023/07/31 05:20:27;;;;;;;12.80;4.07;;;16.50;99.90;;;;;;4850199;29;20057;-56
2023/07/31 05:22:55;;;;;;;15.20;3.97;;;16.40;99.90;;;;;;4836364;29;20068;-56
2023/07/31 05:25:23;;;;;;;12.55;4.45;;;;;;;;;;4852753;29;20053;-55
2023/07/31 05:27:51;;;;;;;17.08;4.53;;;16.40;99.90;;;;;;4850196;29;20045;-55
2023/07/31 05:30:21;;;;;;;13.70;4.35;;;16.50;99.90;;;;;;4848466;29;20064;-55
2023/07/31 05:32:49;;;;;;;15.15;4.75;;;16.50;99.90;;;;;;4845986;29;20060;-56
2023/07/31 05:35:16;;;;;;;14.52;4.28;;;16.50;99.90;;;;;;4849050;29;20053;-56
2023/07/31 05:37:45;;;;;;;14.85;3.20;;;16.50;99.90;;;;;;4840258;29;20595;-56
2023/07/31 05:40:13;;;;;;;17.35;4.32;;;16.50;99.90;;;;;;4834404;29;20049;-55
2023/07/31 05:42:40;;;;;;;12.63;4.05;;;16.50;99.90;;;;;;4845754;29;20046;-56
2023/07/31 05:45:09;;;;;;;12.02;3.97;;;16.50;99.90;;;;;;4842965;29;20537;-57
2023/07/31 05:47:36;;;;;;;12.82;4.10;;;16.50;99.90;;;;;;4832339;29;20812;-56
2023/07/31 05:50:05;;;;;;;11.05;4.47;;;16.50;99.90;;;;;;4840404;29;20057;-56
2023/07/31 05:52:33;;;;;;;13.27;3.95;;;16.60;99.90;;;;;;4841450;29;20406;-56
2023/07/31 05:55:01;;;;;;;17.75;4.38;;;16.60;99.90;;;;;;4855177;29;20050;-56
2023/07/31 05:57:28;;;;;;;14.55;4.55;;;16.60;99.90;;;;;;4830010;29;20475;-57
2023/07/31 05:59:56;;;;;;;18.65;4.95;;;16.60;99.90;;;;;;4833820;29;20494;-56
2023/07/31 06:02:24;;;;;;;16.58;4.68;;;16.70;99.90;;;;;;4849164;29;20038;-56
2023/07/31 06:04:51;;;;;;;13.27;4.75;;;16.70;99.90;;;;;;4845568;29;20050;-56
2023/07/31 06:07:20;;;;;;;10.77;3.58;;;16.80;99.90;;;;;;4848281;29;20057;-57
2023/07/31 06:09:48;;;;;;;19.38;5.15;;;16.80;99.90;;;;;;4855305;29;20049;-56
2023/07/31 06:12:18;;;;;;;18.27;4.82;;;16.90;99.90;;;;;;4848963;29;20046;-56
2023/07/31 06:14:46;;;;;;;16.50;5.07;;;16.90;99.90;;;;;;4851481;29;20045;-56
2023/07/31 06:17:14;;;;;;;15.73;4.78;;;16.90;99.90;;;;;;4824987;29;20046;-57
2023/07/31 06:19:42;;;;;;;14.20;4.57;;;16.80;99.90;;;;;;4836901;29;20068;-57
2023/07/31 06:22:10;;;;;;;13.15;4.28;;;17.00;99.90;;;;;;4847646;29;20050;-57
2023/07/31 06:24:38;;;;;;;14.45;4.85;;;17.00;99.90;;;;;;4837484;29;20049;-57
2023/07/31 06:27:06;;;;;;;11.40;4.65;;;17.00;99.90;;;;;;4836010;29;20401;-57
2023/07/31 06:29:34;;;;;;;13.88;3.72;;;;;;;;;;4815528;29;20050;-56
2023/07/31 06:32:02;;;;;;;14.63;4.82;;;17.00;99.90;;;;;;4851710;29;20045;-57
2023/07/31 06:34:31;;;;;;;13.60;4.00;;;17.00;99.90;;;;;;4824016;29;20426;-57
2023/07/31 06:36:58;;;;;;;17.00;4.50;;;17.00;99.90;;;;;;4828848;29;20060;-57
2023/07/31 06:39:26;;;;;;;14.10;4.93;;;17.10;99.90;;;;;;4852695;29;20076;-57
2023/07/31 06:41:53;;;;;;;16.88;4.30;;;17.10;99.90;;;;;;4831307;29;20406;-58
2023/07/31 06:44:21;;;;;;;13.55;3.85;;;17.10;99.90;;;;;;4851316;29;20056;-57
2023/07/31 06:46:49;;;;;;;15.25;4.47;;;17.10;99.90;;;;;;4829655;29;20057;-57
2023/07/31 06:49:17;;;;;;;15.68;3.95;;;17.10;99.90;;;;;;4844691;29;20057;-57
2023/07/31 06:51:45;;;;;;;15.30;4.10;;;17.20;99.90;;;;;;4845963;29;20524;-57
2023/07/31 06:54:14;;;;;;;14.52;4.43;;;17.20;99.90;;;;;;4851815;29;20037;-57
2023/07/31 06:56:41;;;;;;;12.75;4.55;;;17.20;99.90;;;;;;4847290;29;20053;-57
2023/07/31 06:59:10;;;;;;;13.43;4.18;;;17.20;99.90;;;;;;4854680;29;20041;-57
2023/07/31 07:01:37;;;;;;;10.65;3.90;;;17.10;99.90;;;;;;4850660;29;20053;-56
2023/07/31 07:04:06;;;;;;;15.23;4.38;;;17.10;99.90;;;;;;4845721;29;20525;-58
2023/07/31 07:06:34;;;;;;;12.02;3.78;;;17.10;99.90;;;;;;4845884;29;20085;-57
2023/07/31 07:09:03;;;;;;;16.75;4.22;;;17.10;99.90;;;;;;4848790;29;20064;-57
2023/07/31 07:11:31;;;;;;;11.02;3.50;;;17.10;99.90;;;;;;4848878;29;20046;-57
2023/07/31 07:13:59;;;;;;;10.07;3.80;;;17.00;99.90;;;;;;4852440;29;20053;-57
2023/07/31 07:16:28;;;;;;;11.52;3.17;;;17.00;99.90;;;;;;4844448;29;20060;-57
2023/07/31 07:18:57;;;;;;;15.77;3.92;;;17.00;99.90;;;;;;4827050;29;20038;-57
2023/07/31 07:21:32;;;;;;;8.15;3.17;;;17.00;99.90;;;;;;4850719;29;20489;-57
2023/07/31 07:23:59;;;;;;;8.98;3.10;;;16.90;99.90;;;;;;4831588;29;20168;-56
2023/07/31 07:26:27;;;;;;;11.65;3.25;;;16.90;99.90;;;;;;4833100;29;20049;-57
2023/07/31 07:28:55;;;;;;;11.43;3.72;;;16.90;99.90;;;;;;4851118;29;20780;-57
2023/07/31 07:31:25;;;;;;;9.95;2.60;;;16.90;99.90;;;;;;4833895;29;20398;-57
2023/07/31 07:33:53;;;;;;;9.82;3.47;;;16.90;99.90;;;;;;4849619;29;20058;-57
2023/07/31 07:36:20;;;;;;;12.05;3.35;;;16.90;99.90;;;;;;4857893;29;20050;-57
2023/07/31 07:38:50;;;;;;;9.80;2.50;;;16.90;99.90;;;;;;4836843;29;20053;-57
2023/07/31 07:41:18;;;;;;;9.68;2.45;;;16.90;99.90;;;;;;4832821;29;20076;-57
2023/07/31 07:43:46;;;;;;;6.03;2.65;;;16.90;99.90;;;;;;4840560;29;20064;-57
2023/07/31 07:46:13;;;;;;;6.32;2.47;;;16.80;99.90;;;;;;4855984;29;20433;-57
2023/07/31 07:48:41;;;;;;;7.88;2.83;;;16.80;99.90;;;;;;4834375;29;20054;-57
2023/07/31 07:51:09;;;;;;;13.77;3.08;;;16.90;99.90;;;;;;4822544;29;20049;-57
2023/07/31 07:53:37;;;;;;;9.70;2.83;;;;;;;;;;4823466;29;20068;-56
2023/07/31 07:56:04;;;;;;;6.93;3.28;;;16.90;99.90;;;;;;4834131;29;20062;-56
2023/07/31 07:58:32;;;;;;;11.07;2.13;;;16.90;99.90;;;;;;4842242;29;20490;-57
2023/07/31 08:01:00;;;;;;;11.68;2.35;;;16.90;99.90;;;;;;4842443;29;20064;-57
2023/07/31 08:03:28;;;;;;;7.55;2.45;;;16.90;99.90;;;;;;4835881;29;20489;-57
2023/07/31 08:05:59;;;;;;;10.38;2.40;;;16.90;99.90;;;;;;4846270;29;20050;-57
2023/07/31 08:08:28;;;;;;;8.70;2.20;;;16.90;99.90;;;;;;4853042;29;20042;-57
2023/07/31 08:10:56;;;;;;;5.75;2.55;;;17.00;99.90;;;;;;4848118;29;20049;-57
2023/07/31 08:13:24;;;;;;;7.97;2.40;;;17.00;99.90;;;;;;4844398;29;20057;-57
2023/07/31 08:15:52;;;;;;;6.63;2.38;;;17.00;99.90;;;;;;4845432;29;20543;-57
2023/07/31 08:18:23;;;;;;;13.75;3.00;;;;;;;;;;4832611;29;20054;-58
2023/07/31 08:20:50;;;;;;;7.63;2.10;;;17.00;99.90;;;;;;4841043;29;20050;-58
2023/07/31 08:23:20;;;;;;;;;;;17.10;99.90;;;;;;4835218;29;20044;-57
2023/07/31 08:25:49;;;;;;;7.45;2.20;;;17.10;99.90;;;;;;4844370;29;19941;-57
2023/07/31 08:28:17;;;;;;;12.00;2.45;;;17.10;99.90;;;;;;4854225;29;20058;-57
2023/07/31 08:30:44;;;;;;;11.43;2.45;;;17.10;99.90;;;;;;4851523;29;20071;-57
2023/07/31 08:33:12;;;;;;;7.72;2.10;;;17.10;99.90;;;;;;4827090;29;20577;-57
2023/07/31 08:35:40;;;;;;;6.18;2.15;;;17.10;99.90;;;;;;4839601;29;20049;-57
2023/07/31 08:38:08;;;;;;;7.72;2.00;;;17.10;99.90;;;;;;4849037;29;20050;-57
2023/07/31 08:40:38;;;;;;;10.65;2.65;;;17.10;99.90;;;;;;4844258;29;20049;-57
2023/07/31 08:43:08;;;;;;;9.20;2.85;;;17.20;99.90;;;;;;4848058;29;20053;-57
2023/07/31 08:45:37;;;;;;;11.05;2.80;;;17.20;99.90;;;;;;4848665;29;20072;-57
2023/07/31 08:48:04;;;;;;;10.25;2.50;;;17.30;99.90;;;;;;4851848;29;20056;-57
2023/07/31 08:50:33;;;;;;;6.80;1.70;;;17.30;99.90;;;;;;4839348;29;20068;-57
2023/07/31 08:53:00;;;;;;;10.25;2.25;;;17.40;99.90;;;;;;4824489;29;20058;-57
2023/07/31 08:55:29;;;;;;;7.45;2.42;;;17.60;99.90;;;;;;4822671;29;20050;-58
2023/07/31 08:57:58;;;;;;;7.55;2.30;;;17.60;99.90;;;;;;4836096;29;20049;-57
2023/07/31 09:00:28;;;;;;;8.32;2.25;;;17.90;99.90;;;;;;4839407;29;20568;-57
2023/07/31 09:03:01;;;;;;;8.57;2.20;;;18.00;99.90;;;;;;4812236;29;20054;-58
2023/07/31 09:05:31;;;;;;;10.73;2.20;;;18.10;99.90;;;;;;4842124;29;20052;-58
2023/07/31 09:08:03;;;;;;;7.38;2.00;;;18.20;99.90;;;;;;4850595;29;20065;-58
2023/07/31 09:10:31;;;;;;;5.68;2.17;;;18.20;99.90;;;;;;4844938;29;20049;-57
2023/07/31 09:12:59;;;;;;;7.32;2.17;;;18.30;99.90;;;;;;4833596;29;20127;-57
2023/07/31 09:15:28;;;;;;;9.20;2.20;;;18.30;99.90;;;;;;4852620;29;20218;-58
2023/07/31 09:18:06;;;;;;;7.30;1.98;;;18.30;99.90;;;;;;4847741;29;20116;-58
2023/07/31 09:20:35;;;;;;;7.38;2.22;;;18.30;99.90;;;;;;4841313;29;20045;-57
2023/07/31 09:23:11;;;;;;;6.18;1.90;;;18.30;99.90;;;;;;4844629;29;20072;-57
2023/07/31 09:25:42;;;;;;;6.47;2.20;;;18.40;99.90;;;;;;4846050;29;20066;-58
2023/07/31 09:28:11;;;;;;;9.52;1.80;;;18.50;99.90;;;;;;4830751;29;20060;-57
2023/07/31 09:30:50;;;;;;;3.67;1.77;;;18.60;99.90;;;;;;4844984;29;20052;-57
2023/07/31 09:33:19;;;;;;;6.85;1.95;;;18.60;99.90;;;;;;4839091;29;20041;-57
2023/07/31 09:35:48;;;;;;;8.77;1.90;;;18.50;99.90;;;;;;4842758;29;20057;-57
2023/07/31 09:38:16;;;;;;;9.38;1.80;;;18.40;99.90;;;;;;4849131;29;20234;-57
2023/07/31 09:40:47;;;;;;;3.47;2.28;;;18.40;99.90;;;;;;4832958;29;20049;-57
2023/07/31 09:43:22;;;;;;;7.43;1.75;;;18.30;99.90;;;;;;4820320;29;20050;-58
2023/07/31 09:45:56;;;;;;;9.23;2.50;;;18.10;99.90;;;;;;4851415;29;20042;-58
2023/07/31 09:48:27;;;;;;;5.85;1.73;;;17.90;99.90;;;;;;4835504;29;20608;-58
2023/07/31 09:50:55;;;;;;;8.15;2.38;;;17.90;99.90;;;;;;4845036;29;20049;-57
2023/07/31 09:53:32;;;;;;;7.70;2.75;;;17.80;99.90;;;;;;4850044;29;20534;-58
2023/07/31 09:56:00;;;;;;;9.13;2.08;;;17.80;99.90;;;;;;4823633;29;20391;-58
2023/07/31 09:58:29;;;;;;;11.48;2.10;;;17.70;99.90;;;;;;4848327;29;20379;-59
2023/07/31 10:00:59;;;;;;;11.07;3.15;;;17.70;99.90;;;;;;4843414;29;20405;-59
2023/07/31 10:03:29;;;;;;;6.07;2.17;;;17.60;99.90;;;;;;4834799;29;20054;-58
2023/07/31 10:06:00;;;;;;;7.88;2.92;;;17.50;99.90;;;;;;4837638;29;20072;-57
2023/07/31 10:08:32;;;;;;;7.95;2.25;;;17.40;99.90;;;;;;4850006;29;20482;-59
2023/07/31 10:11:02;;;;;;;5.15;1.90;;;17.40;99.90;;;;;;4847880;29;20062;-58
2023/07/31 10:13:30;;;;;;;10.20;2.83;;;17.30;99.90;;;;;;4837224;29;20517;-58
2023/07/31 10:16:00;;;;;;;6.57;2.15;;;17.20;99.90;;;;;;4848357;29;20046;-59
2023/07/31 10:18:29;;;;;;;7.03;2.15;;;17.20;99.90;;;;;;4846756;29;20049;-58
2023/07/31 10:20:57;;;;;;;10.68;2.30;;;17.20;99.90;;;;;;4847770;29;20053;-58
2023/07/31 10:23:25;;;;;;;9.40;3.03;;;17.20;99.90;;;;;;4840562;29;20053;-59
2023/07/31 10:25:54;;;;;;;9.48;1.95;;;17.20;99.90;;;;;;4812750;29;20065;-57
2023/07/31 10:28:24;;;;;;;10.98;2.65;;;17.20;99.90;;;;;;4848773;29;20061;-58
2023/07/31 10:30:53;;;;;;;12.57;2.50;;;17.20;99.90;;;;;;4816339;29;20058;-57
2023/07/31 10:33:22;;;;;;;17.00;2.72;;;17.20;99.90;;;;;;4845957;29;20054;-58
2023/07/31 10:35:53;;;;;;;9.18;2.70;;;17.20;99.90;;;;;;4835568;29;20477;-57
2023/07/31 10:38:24;;;;;;;6.82;2.08;;;17.20;99.90;;;;;;4839688;29;20054;-58
2023/07/31 10:40:51;;;;;;;8.57;2.30;;;17.20;99.90;;;;;;4841191;29;20048;-57
2023/07/31 10:43:30;;;;;;;9.57;2.67;;;17.20;99.90;;;;;;4854991;29;20046;-58
2023/07/31 10:45:58;;;;;;;7.75;2.10;;;17.20;99.90;;;;;;4830683;29;20536;-58
2023/07/31 10:48:37;;;;;;;7.18;2.45;;;17.20;99.90;;;;;;4839848;29;20051;-57
2023/07/31 10:51:12;;;;;;;9.23;2.23;;;17.20;99.90;;;;;;4830224;29;20053;-58
2023/07/31 10:53:41;;;;;;;7.60;2.15;;;17.20;99.90;;;;;;4842487;29;20061;-58
2023/07/31 10:56:15;;;;;;;8.63;2.70;;;17.30;99.90;;;;;;4856676;29;20489;-58
2023/07/31 10:58:46;;;;;;;8.93;2.28;;;17.20;99.90;;;;;;4855460;29;20060;-58
2023/07/31 11:01:13;;;;;;;6.65;2.20;;;17.30;99.90;;;;;;4858428;29;20066;-58
2023/07/31 11:03:53;;;;;;;8.23;2.50;;;17.30;99.90;;;;;;4840659;29;20054;-58
2023/07/31 11:06:21;;;;;;;8.57;3.33;;;17.30;99.90;;;;;;4842692;29;20046;-58
2023/07/31 11:08:50;;;;;;;9.70;3.13;;;17.30;99.90;;;;;;4832291;29;20501;-58
2023/07/31 11:11:20;;;;;;;7.35;2.63;;;17.20;99.90;;;;;;4849422;29;20050;-58
2023/07/31 11:13:49;;;;;;;6.27;2.37;;;17.20;99.90;;;;;;4850562;29;20398;-57
2023/07/31 11:16:19;;;;;;;12.98;3.10;;;17.10;99.90;;;;;;4849072;29;20065;-56
2023/07/31 11:18:49;;;;;;;12.85;2.60;;;16.80;99.90;;;;;;4851737;29;20049;-56
2023/07/31 11:21:24;;;;;;;10.38;2.83;;;16.70;99.90;;;;;;4843581;29;20066;-56
2023/07/31 11:23:56;;;;;;;12.73;3.42;;;16.60;99.90;;;;;;4834244;29;20041;-57
2023/07/31 11:26:27;;;;;;;14.50;2.88;;;16.50;99.90;;;;;;4821681;29;20054;-58
2023/07/31 11:28:55;;;;;;;9.90;2.83;;;16.30;99.90;;;;;;4826568;29;20591;-57
2023/07/31 11:31:22;;;;;;;10.65;2.83;;;16.20;99.90;;;;;;4849001;29;20068;-56
2023/07/31 11:33:50;;;;;;;13.45;3.22;;;16.10;99.90;;;;;;4844203;29;20061;-55
2023/07/31 11:36:21;;;;;;;13.13;3.33;;;16.00;99.90;;;;;;4844310;29;20489;-56
2023/07/31 11:38:49;;;;;;;13.82;3.92;;;16.00;99.90;;;;;;4851365;29;20050;-55
2023/07/31 11:41:16;;;;;;;14.40;3.83;;;16.00;99.90;;;;;;4848898;29;20059;-56
2023/07/31 11:43:47;;;;;;;14.93;3.13;;;16.10;99.90;;;;;;4837297;29;20050;-55
2023/07/31 11:46:15;;;;;;;;;;;16.10;99.90;;;;;;4849338;29;20388;-57
2023/07/31 11:48:43;;;;;;;9.98;3.10;;;16.10;99.90;;;;;;4834410;29;19935;-57
2023/07/31 11:51:14;;;;;;;9.85;3.03;;;16.10;99.90;;;;;;4839570;29;20481;-57
2023/07/31 11:53:48;;;;;;;11.65;3.25;;;16.10;99.90;;;;;;4826863;29;20514;-59
2023/07/31 11:56:18;;;;;;;9.50;3.65;;;16.20;99.90;;;;;;4847173;29;20501;-57
2023/07/31 11:58:49;;;;;;;11.35;3.80;;;16.20;99.90;;;;;;4836684;29;20072;-57
2023/07/31 12:01:19;;;;;;;11.32;3.58;;;16.40;99.90;;;;;;4836327;29;20042;-58
2023/07/31 12:03:49;;;;;;;16.98;3.50;;;16.30;99.90;;;;;;4837684;29;20049;-57
2023/07/31 12:06:17;;;;;;;9.50;3.50;;;16.40;99.90;;;;;;4841154;29;20406;-56
2023/07/31 12:08:44;;;;;;;11.80;3.30;;;16.40;99.90;;;;;;4852126;29;20660;-59
2023/07/31 12:11:17;;;;;;;8.85;2.55;;;16.40;99.90;;;;;;4848486;29;20057;-57
2023/07/31 12:13:45;;;;;;;14.10;3.13;;;16.50;99.90;;;;;;4853684;29;20061;-59
2023/07/31 12:16:13;;;;;;;10.90;3.63;;;16.40;99.90;;;;;;4841132;29;20065;-57
2023/07/31 12:18:41;;;;;;;11.95;2.80;;;16.30;99.90;;;;;;4855020;29;20064;-59
2023/07/31 12:21:11;;;;;;;9.95;2.78;;;16.20;99.90;;;;;;4853017;29;20060;-58
2023/07/31 12:23:42;;;;;;;11.15;2.15;;;16.10;99.90;;;;;;4835084;29;20540;-59
2023/07/31 12:26:14;;;;;;;10.70;3.53;;;16.10;99.90;;;;;;4842730;29;20079;-57
2023/07/31 12:28:47;;;;;;;9.35;2.85;;;16.00;99.90;;;;;;4836523;29;20057;-57
2023/07/31 12:31:20;;;;;;;12.13;3.17;;;16.00;99.90;;;;;;4828018;29;20060;-57
2023/07/31 12:33:50;;;;;;;9.70;3.17;;;15.90;99.90;;;;;;4842800;29;20057;-56
2023/07/31 12:36:21;;;;;;;8.73;2.65;;;15.90;99.90;;;;;;4840356;29;20433;-56
2023/07/31 12:38:51;;;;;;;12.70;2.80;;;15.80;99.90;;;;;;4841171;29;20048;-57
2023/07/31 12:41:19;;;;;;;9.60;2.72;;;15.90;99.90;;;;;;4849026;29;20052;-58
2023/07/31 12:43:47;;;;;;;11.68;3.42;;;15.90;99.90;;;;;;4852021;29;20413;-58
2023/07/31 12:46:15;;;;;;;11.85;3.00;;;15.90;99.90;;;;;;4841226;29;20301;-58
2023/07/31 12:48:43;;;;;;;12.02;3.80;;;15.90;99.90;;;;;;4838367;29;20062;-58
2023/07/31 12:51:11;;;;;;;16.30;2.97;;;15.90;99.90;;;;;;4845362;29;20050;-57
2023/07/31 12:53:39;;;;;;;9.82;3.03;;;15.80;99.90;;;;;;4836811;29;20057;-56